Jasper, Missouri
Current Conditions -  °F | °C
As of 12:15 AM on Saturday 20 Dec 2014 (Local Time) from KJLN Reporting Station
Haze Haze  
Wind Chill: 34°   Ceiling: 300
Heat Index: 38°   Visibility: 3mi
Dew Point: 38°   Wind: 5mph
Humidity: 100%   Direction: 290°WNW
Pressure: 30.21"   Gusts: NA
Location:  37.34°N, 94.3°W
Report Text: KJLN 200615Z AUTO 29004KT 3SM BR OVC003 03/03 A3021 RMK AO2 T00330033
Loading
Personal Weather Stations






























Interactive Weather Map New forecast layout! Learn more

10-Day Weather Forecast

Advertisements
Track Severe Weather on mobile